Hopewell Township, New Jersey
Current Conditions -  °F | °C
As of 4:53 AM on Saturday 25 Oct 2014 (Local Time) from KTTN Reporting Station
Clear Clear  
Wind Chill:   Ceiling: Unl
Heat Index:   Visibility: 10mi
Dew Point:   Wind: 0mph
Humidity: 54%   Direction: NA
Pressure: 29.89"   Gusts: NA
Location:  40.3975°N, 74.7746°W
Report Text: KTTN 250853Z AUTO 00000KT 10SM CLR 09/00 A2989 RMK AO2 SLP116 T00890000 51003
Loading
Personal Weather Stations






























Interactive Weather Map
Tropical Storm Tracking
New forecast layout! Learn more

10-Day Weather Forecast

Advertisements
Track Severe Weather on mobile